Sea Cloud II — 9HUE6 — position and weather

sailwx.info

Track history (hours):
 
Tides and Currents Weather Stations Pressure Air Temp Water Temp Dewpoint Dewpoint Depression Visibility Wind Speed Wind Dir Waves Ship Positions

Sea Cloud II

Ship's website: http://www.seacloud.com/en/the-ships/sea-cloud-ii.html

Last reported at 2016-Aug-28 03:31 UTC. Time now 2016-Aug-28 14:07 UTC.
Position N 45°36' W 001°21'.

Length 117 m; draft 6 m.

Type: Passenger vessel. MMSI: 248953000.

Date/timePositionNaut miles runAvg speedWind from/ knotsBaromVisibWave heightAir tempDewpointWater temp
2016-Aug-28 03:31N 45°36' W 001°21'8 6.2
2016-Aug-28 02:17N 45°34' W 001°32'3 3.9
2016-Aug-28 01:25N 45°35' W 001°36'5 4.4
2016-Aug-28 00:23N 45°39' W 001°40'5 4.4
2016-Aug-27 23:16N 45°43' W 001°44'5 4.7
2016-Aug-27 22:11N 45°48' W 001°47'4 5.6
2016-Aug-27 21:30N 45°51' W 001°50'5 5.3
2016-Aug-27 20:34N 45°55' W 001°53'11 3.5
2016-Aug-27 17:29N 46°06' W 001°57'4 4.6
2016-Aug-27 16:32N 46°10' W 001°59'4 4.5
2016-Aug-27 15:32N 46°14' W 002°02'4 3.8
2016-Aug-27 14:27N 46°18' W 002°04'4 3.6
2016-Aug-27 13:26N 46°21' W 002°06'3 3.2
2016-Aug-27 12:33N 46°24' W 002°08'1 1.3
2016-Aug-27 11:33N 46°25' W 002°10'2 2.2
2016-Aug-27 10:33N 46°26' W 002°12'3 2.8
2016-Aug-27 09:33N 46°26' W 002°16'2 2.4
2016-Aug-27 08:33N 46°26' W 002°20'3 3.1
2016-Aug-27 07:33N 46°25' W 002°24'2 2.5
2016-Aug-27 06:33N 46°25' W 002°28'12 6.1
2016-Aug-27 04:33N 46°37' W 002°23'8 8.0
2016-Aug-27 03:33N 46°43' W 002°30'9 8.0
2016-Aug-27 02:23N 46°51' W 002°38'7 8.4
2016-Aug-27 01:33N 46°57' W 002°43'9 8.5
2016-Aug-27 00:33N 47°04' W 002°50'9 8.7
2016-Aug-26 23:33N 47°12' W 002°57'8 8.2
2016-Aug-26 22:33N 47°19' W 003°01'5 5.3
2016-Aug-26 21:33N 47°21' W 003°08'0 0.0
2016-Aug-26 20:33N 47°21' W 003°08'0 0.0
2016-Aug-26 19:33N 47°21' W 003°08'0 0.0
2016-Aug-26 18:33N 47°21' W 003°08'0 0.0
2016-Aug-26 17:33N 47°21' W 003°08'0 0.0
2016-Aug-26 16:33N 47°21' W 003°08'0 0.0
2016-Aug-26 15:33N 47°21' W 003°08'0 0.0
2016-Aug-26 14:33N 47°21' W 003°08'0 0.0
2016-Aug-26 13:33N 47°21' W 003°08'0 0.0
2016-Aug-26 12:33N 47°21' W 003°08'0 0.0
2016-Aug-26 11:33N 47°21' W 003°08'0 0.0
2016-Aug-26 10:33N 47°21' W 003°08'3 3.1
2016-Aug-26 09:33N 47°24' W 003°11'5 5.2
2016-Aug-26 08:33N 47°26' W 003°18'6 5.6
2016-Aug-26 07:34N 47°28' W 003°25'6 6.2
2016-Aug-26 06:33N 47°30' W 003°34'13 6.3
2016-Aug-26 04:31N 47°33' W 003°52'6 6.1
2016-Aug-26 03:33N 47°32' W 004°01'7 6.8
2016-Aug-26 02:33N 47°33' W 004°11'8 7.3
2016-Aug-26 01:30N 47°33' W 004°23'7 6.9
2016-Aug-26 00:33N 47°34' W 004°32'15 7.4
2016-Aug-25 22:28N 47°48' W 004°42'7 7.3
2016-Aug-25 21:33N 47°53' W 004°49'1010.4
2016-Aug-25 20:33N 47°57' W 005°03'10 8.5
2016-Aug-25 19:24N 48°07' W 005°08'1011.3
2016-Aug-25 18:33N 48°14' W 004°58'1212.4
2016-Aug-25 17:33N 48°19' W 004°41'9 9.2
2016-Aug-25 16:33N 48°23' W 004°29'0 0.0
2016-Aug-25 15:32N 48°23' W 004°29'0 0.0
2016-Aug-25 14:32N 48°23' W 004°29'0 0.0
2016-Aug-25 13:32N 48°23' W 004°29'0 0.0
2016-Aug-25 12:32N 48°23' W 004°29'0 0.0
2016-Aug-25 11:33N 48°23' W 004°29'5 5.0
2016-Aug-25 10:33N 48°20' W 004°35'9 9.1
2016-Aug-25 09:33N 48°16' W 004°48'9 9.2
2016-Aug-25 08:33N 48°15' W 005°01'3 3.3
2016-Aug-25 07:33N 48°18' W 005°05'3 3.1
2016-Aug-25 06:33N 48°20' W 005°08'12 6.1
2016-Aug-25 04:33N 48°27' W 005°22'5 5.3
2016-Aug-25 03:33N 48°33' W 005°21'8 8.0
2016-Aug-25 02:33N 48°39' W 005°14'8 8.2
2016-Aug-25 01:33N 48°42' W 005°02'8 8.0
2016-Aug-25 00:33N 48°45' W 004°51'10 9.8
2016-Aug-24 23:33N 48°48' W 004°37'1211.4
2016-Aug-24 22:32N 48°53' W 004°21'1010.6
2016-Aug-24 21:32N 48°57' W 004°06'9 9.1
2016-Aug-24 20:32N 48°60' W 003°53'12 9.3
2016-Aug-24 19:12N 49°05' W 003°35'810.2
2016-Aug-24 18:24N 49°10' W 003°26'1011.2
2016-Aug-24 17:30N 49°15' W 003°13'5 4.7
2016-Aug-24 16:24N 49°18' W 003°06'3 2.9
2016-Aug-24 15:30N 49°19' W 003°03'5 4.9
2016-Aug-24 14:30N 49°21' W 002°56'1111.9
2016-Aug-24 13:33N 49°22' W 002°39'7 7.2
2016-Aug-24 12:33N 49°28' W 002°31'0 0.0
2016-Aug-24 11:27N 49°28' W 002°31'0 0.1
2016-Aug-24 10:33N 49°28' W 002°31'0 0.1
2016-Aug-24 09:30N 49°28' W 002°31'0 0.1
2016-Aug-24 08:33N 49°28' W 002°31'0 0.0
2016-Aug-24 07:30N 49°28' W 002°31'0 0.3
2016-Aug-24 06:33N 49°28' W 002°31'9 4.5
2016-Aug-24 04:31N 49°21' W 002°20'6 6.1
2016-Aug-24 03:30N 49°27' W 002°15'6 6.7
2016-Aug-24 02:33N 49°32' W 002°21'5 5.3
2016-Aug-24 01:33N 49°35' W 002°28'11 4.4
2016-Aug-23 23:08N 49°41' W 002°41'3 4.4
2016-Aug-23 22:33N 49°43' W 002°44'5 4.5
2016-Aug-23 21:26N 49°46' W 002°50'8 8.5
2016-Aug-23 20:33N 49°51' W 002°58'1111.0
2016-Aug-23 19:33N 49°59' W 003°11'1110.9
2016-Aug-23 18:33N 50°06' W 003°24'7 7.2
2016-Aug-23 17:33N 50°10' W 003°32'2 1.9
2016-Aug-23 16:33N 50°10' W 003°29'2 1.6
2016-Aug-23 15:33N 50°11' W 003°27'2 2.1
2016-Aug-23 14:33N 50°13' W 003°25'10 7.9
2016-Aug-23 13:18N 50°21' W 003°34'1 0.7
2016-Aug-23 12:31N 50°21' W 003°34'0 0.0
2016-Aug-23 11:25N 50°21' W 003°34'0 0.0
2016-Aug-23 10:31N 50°21' W 003°34'0 0.0
2016-Aug-23 09:31N 50°21' W 003°34'0 0.0
2016-Aug-23 08:31N 50°21' W 003°34'0 0.0
2016-Aug-23 07:31N 50°21' W 003°34'0 0.4
2016-Aug-23 06:33N 50°22' W 003°35'5 5.5
2016-Aug-23 05:33N 50°16' W 003°32'8 8.1
2016-Aug-23 04:33N 50°09' W 003°38'5 5.3
2016-Aug-23 03:33N 50°08' W 003°46'7 6.6
2016-Aug-23 02:33N 50°05' W 003°55'7 6.8
2016-Aug-23 01:33N 50°04' W 004°06'7 7.4
2016-Aug-23 00:33N 50°02' W 004°17'8 7.6
2016-Aug-22 23:33N 50°00' W 004°28'8 8.3
2016-Aug-22 22:34N 49°59' W 004°41'9 9.2
2016-Aug-22 21:33N 49°57' W 004°55'1312.4
2016-Aug-22 20:32N 49°55' W 005°14'1212.2
2016-Aug-22 19:34N 49°54' W 005°33'1211.6
2016-Aug-22 18:32N 49°54' W 005°51'1111.7
2016-Aug-22 17:33N 49°54' W 006°09'5 2.4
2016-Aug-22 15:17N 49°56' W 006°17'0 0.0
2016-Aug-22 14:17N 49°56' W 006°17'0 0.0
2016-Aug-22 13:32N 49°56' W 006°17'4 1.5
2016-Aug-22 10:29N 49°59' W 006°11'7 7.1
2016-Aug-22 09:33N 50°02' W 006°20'106 9.4
2016-Aug-21 22:12N 51°30' W 007°57'711.3
2016-Aug-21 21:33N 51°36' W 008°04'1211.7
2016-Aug-21 20:34N 51°45' W 008°15'6 6.3
2016-Aug-21 19:34N 51°51' W 008°18'0 0.0
2016-Aug-21 18:32N 51°51' W 008°18'0 0.0
2016-Aug-21 17:32N 51°51' W 008°18'0 0.0
2016-Aug-21 16:20N 51°51' W 008°18'0 0.0
2016-Aug-21 15:32N 51°51' W 008°18'0 0.0
2016-Aug-21 14:32N 51°51' W 008°18'0 0.0
2016-Aug-21 12:26N 51°51' W 008°18'2 2.1
2016-Aug-21 11:19N 51°49' W 008°16'6 8.1
2016-Aug-21 10:33N 51°44' W 008°10'1211.7
2016-Aug-21 09:33N 51°40' W 007°52'5 4.6
2016-Aug-21 08:30N 51°44' W 007°50'5 5.4
2016-Aug-21 07:33N 51°49' W 007°48'1110.6
2016-Aug-21 06:33N 51°55' W 007°34'1110.8
2016-Aug-21 05:33N 52°03' W 007°22'1110.6
2016-Aug-21 04:33N 52°03' W 007°04'1110.8
2016-Aug-21 03:33N 52°02' W 006°47'141 4.7
2016-Aug-19 21:33N 54°14' W 005°25'1211.2
2016-Aug-19 20:28N 54°26' W 005°20'1213.2
2016-Aug-19 19:33N 54°38' W 005°25'1110.8
2016-Aug-19 18:34N 54°42' W 005°42'9 2.8
2016-Aug-19 15:23N 54°37' W 005°54'0 0.0
2016-Aug-19 13:23N 54°37' W 005°54'0 0.0
2016-Aug-19 09:22N 54°37' W 005°54'4 0.9
2016-Aug-19 04:33N 54°40' W 005°50'6 6.4
2016-Aug-19 03:33N 54°44' W 005°40'5 4.7
2016-Aug-19 02:33N 54°47' W 005°35'6 5.4
2016-Aug-19 01:31N 54°53' W 005°35'6 5.6
2016-Aug-19 00:32N 54°59' W 005°37'16 7.0
2016-Aug-18 22:16N 55°11' W 005°53'710.0
2016-Aug-18 21:33N 55°17' W 006°01'1211.6
2016-Aug-18 20:33N 55°20' W 006°21'1312.7
2016-Aug-18 19:34N 55°14' W 006°40'1 0.3
2016-Aug-18 14:22N 55°12' W 006°40'0 0.1
2016-Aug-18 13:22N 55°12' W 006°40'0 0.0
2016-Aug-18 11:25N 55°12' W 006°40'2 0.4
2016-Aug-18 06:33N 55°14' W 006°42'8 7.8
2016-Aug-18 05:32N 55°22' W 006°46'1111.1
2016-Aug-18 04:33N 55°32' W 006°52'1010.5
2016-Aug-18 03:33N 55°42' W 006°58'  
Track history (hours):
 
Tides and Currents Weather Stations Pressure Air Temp Water Temp Dewpoint Dewpoint Depression Visibility Wind Speed Wind Dir Waves Ship Positions

Sea Cloud II

Ship's website: http://www.seacloud.com/en/the-ships/sea-cloud-ii.html

Last reported at 2016-Aug-28 03:31 UTC. Time now 2016-Aug-28 14:07 UTC.
Position N 45°36' W 001°21'.

Length 117 m; draft 6 m.

Type: Passenger vessel. MMSI: 248953000.

Date/timePositionNaut miles runAvg speedWind from/ knotsBaromVisibWave heightAir tempDewpointWater temp
2016-Aug-28 03:31N 45°36' W 001°21'8 6.2
2016-Aug-28 02:17N 45°34' W 001°32'3 3.9
2016-Aug-28 01:25N 45°35' W 001°36'5 4.4
2016-Aug-28 00:23N 45°39' W 001°40'5 4.4
2016-Aug-27 23:16N 45°43' W 001°44'5 4.7
2016-Aug-27 22:11N 45°48' W 001°47'4 5.6
2016-Aug-27 21:30N 45°51' W 001°50'5 5.3
2016-Aug-27 20:34N 45°55' W 001°53'11 3.5
2016-Aug-27 17:29N 46°06' W 001°57'4 4.6
2016-Aug-27 16:32N 46°10' W 001°59'4 4.5
2016-Aug-27 15:32N 46°14' W 002°02'4 3.8
2016-Aug-27 14:27N 46°18' W 002°04'4 3.6
2016-Aug-27 13:26N 46°21' W 002°06'3 3.2
2016-Aug-27 12:33N 46°24' W 002°08'1 1.3
2016-Aug-27 11:33N 46°25' W 002°10'2 2.2
2016-Aug-27 10:33N 46°26' W 002°12'3 2.8
2016-Aug-27 09:33N 46°26' W 002°16'2 2.4
2016-Aug-27 08:33N 46°26' W 002°20'3 3.1
2016-Aug-27 07:33N 46°25' W 002°24'2 2.5
2016-Aug-27 06:33N 46°25' W 002°28'12 6.1
2016-Aug-27 04:33N 46°37' W 002°23'8 8.0
2016-Aug-27 03:33N 46°43' W 002°30'9 8.0
2016-Aug-27 02:23N 46°51' W 002°38'7 8.4
2016-Aug-27 01:33N 46°57' W 002°43'9 8.5
2016-Aug-27 00:33N 47°04' W 002°50'9 8.7
2016-Aug-26 23:33N 47°12' W 002°57'8 8.2
2016-Aug-26 22:33N 47°19' W 003°01'5 5.3
2016-Aug-26 21:33N 47°21' W 003°08'0 0.0
2016-Aug-26 20:33N 47°21' W 003°08'0 0.0
2016-Aug-26 19:33N 47°21' W 003°08'0 0.0
2016-Aug-26 18:33N 47°21' W 003°08'0 0.0
2016-Aug-26 17:33N 47°21' W 003°08'0 0.0
2016-Aug-26 16:33N 47°21' W 003°08'0 0.0
2016-Aug-26 15:33N 47°21' W 003°08'0 0.0
2016-Aug-26 14:33N 47°21' W 003°08'0 0.0
2016-Aug-26 13:33N 47°21' W 003°08'0 0.0
2016-Aug-26 12:33N 47°21' W 003°08'0 0.0
2016-Aug-26 11:33N 47°21' W 003°08'0 0.0
2016-Aug-26 10:33N 47°21' W 003°08'3 3.1
2016-Aug-26 09:33N 47°24' W 003°11'5 5.2
2016-Aug-26 08:33N 47°26' W 003°18'6 5.6
2016-Aug-26 07:34N 47°28' W 003°25'6 6.2
2016-Aug-26 06:33N 47°30' W 003°34'13 6.3
2016-Aug-26 04:31N 47°33' W 003°52'6 6.1
2016-Aug-26 03:33N 47°32' W 004°01'7 6.8
2016-Aug-26 02:33N 47°33' W 004°11'8 7.3
2016-Aug-26 01:30N 47°33' W 004°23'7 6.9
2016-Aug-26 00:33N 47°34' W 004°32'15 7.4
2016-Aug-25 22:28N 47°48' W 004°42'7 7.3
2016-Aug-25 21:33N 47°53' W 004°49'1010.4
2016-Aug-25 20:33N 47°57' W 005°03'10 8.5
2016-Aug-25 19:24N 48°07' W 005°08'1011.3
2016-Aug-25 18:33N 48°14' W 004°58'1212.4
2016-Aug-25 17:33N 48°19' W 004°41'9 9.2
2016-Aug-25 16:33N 48°23' W 004°29'0 0.0
2016-Aug-25 15:32N 48°23' W 004°29'0 0.0
2016-Aug-25 14:32N 48°23' W 004°29'0 0.0
2016-Aug-25 13:32N 48°23' W 004°29'0 0.0
2016-Aug-25 12:32N 48°23' W 004°29'0 0.0
2016-Aug-25 11:33N 48°23' W 004°29'5 5.0
2016-Aug-25 10:33N 48°20' W 004°35'9 9.1
2016-Aug-25 09:33N 48°16' W 004°48'9 9.2
2016-Aug-25 08:33N 48°15' W 005°01'3 3.3
2016-Aug-25 07:33N 48°18' W 005°05'3 3.1
2016-Aug-25 06:33N 48°20' W 005°08'12 6.1
2016-Aug-25 04:33N 48°27' W 005°22'5 5.3
2016-Aug-25 03:33N 48°33' W 005°21'8 8.0
2016-Aug-25 02:33N 48°39' W 005°14'8 8.2
2016-Aug-25 01:33N 48°42' W 005°02'8 8.0
2016-Aug-25 00:33N 48°45' W 004°51'10 9.8
2016-Aug-24 23:33N 48°48' W 004°37'1211.4
2016-Aug-24 22:32N 48°53' W 004°21'1010.6
2016-Aug-24 21:32N 48°57' W 004°06'9 9.1
2016-Aug-24 20:32N 48°60' W 003°53'12 9.3
2016-Aug-24 19:12N 49°05' W 003°35'810.2
2016-Aug-24 18:24N 49°10' W 003°26'1011.2
2016-Aug-24 17:30N 49°15' W 003°13'5 4.7
2016-Aug-24 16:24N 49°18' W 003°06'3 2.9
2016-Aug-24 15:30N 49°19' W 003°03'5 4.9
2016-Aug-24 14:30N 49°21' W 002°56'1111.9
2016-Aug-24 13:33N 49°22' W 002°39'7 7.2
2016-Aug-24 12:33N 49°28' W 002°31'0 0.0
2016-Aug-24 11:27N 49°28' W 002°31'0 0.1
2016-Aug-24 10:33N 49°28' W 002°31'0 0.1
2016-Aug-24 09:30N 49°28' W 002°31'0 0.1
2016-Aug-24 08:33N 49°28' W 002°31'0 0.0
2016-Aug-24 07:30N 49°28' W 002°31'0 0.3
2016-Aug-24 06:33N 49°28' W 002°31'9 4.5
2016-Aug-24 04:31N 49°21' W 002°20'6 6.1
2016-Aug-24 03:30N 49°27' W 002°15'6 6.7
2016-Aug-24 02:33N 49°32' W 002°21'5 5.3
2016-Aug-24 01:33N 49°35' W 002°28'11 4.4
2016-Aug-23 23:08N 49°41' W 002°41'3 4.4
2016-Aug-23 22:33N 49°43' W 002°44'5 4.5
2016-Aug-23 21:26N 49°46' W 002°50'8 8.5
2016-Aug-23 20:33N 49°51' W 002°58'1111.0
2016-Aug-23 19:33N 49°59' W 003°11'1110.9
2016-Aug-23 18:33N 50°06' W 003°24'7 7.2
2016-Aug-23 17:33N 50°10' W 003°32'2 1.9
2016-Aug-23 16:33N 50°10' W 003°29'2 1.6
2016-Aug-23 15:33N 50°11' W 003°27'2 2.1
2016-Aug-23 14:33N 50°13' W 003°25'10 7.9
2016-Aug-23 13:18N 50°21' W 003°34'1 0.7
2016-Aug-23 12:31N 50°21' W 003°34'0 0.0
2016-Aug-23 11:25N 50°21' W 003°34'0 0.0
2016-Aug-23 10:31N 50°21' W 003°34'0 0.0
2016-Aug-23 09:31N 50°21' W 003°34'0 0.0
2016-Aug-23 08:31N 50°21' W 003°34'0 0.0
2016-Aug-23 07:31N 50°21' W 003°34'0 0.4
2016-Aug-23 06:33N 50°22' W 003°35'5 5.5
2016-Aug-23 05:33N 50°16' W 003°32'8 8.1
2016-Aug-23 04:33N 50°09' W 003°38'5 5.3
2016-Aug-23 03:33N 50°08' W 003°46'7 6.6
2016-Aug-23 02:33N 50°05' W 003°55'7 6.8
2016-Aug-23 01:33N 50°04' W 004°06'7 7.4
2016-Aug-23 00:33N 50°02' W 004°17'8 7.6
2016-Aug-22 23:33N 50°00' W 004°28'8 8.3
2016-Aug-22 22:34N 49°59' W 004°41'9 9.2
2016-Aug-22 21:33N 49°57' W 004°55'1312.4
2016-Aug-22 20:32N 49°55' W 005°14'1212.2
2016-Aug-22 19:34N 49°54' W 005°33'1211.6
2016-Aug-22 18:32N 49°54' W 005°51'1111.7
2016-Aug-22 17:33N 49°54' W 006°09'5 2.4
2016-Aug-22 15:17N 49°56' W 006°17'0 0.0
2016-Aug-22 14:17N 49°56' W 006°17'0 0.0
2016-Aug-22 13:32N 49°56' W 006°17'4 1.5
2016-Aug-22 10:29N 49°59' W 006°11'7 7.1
2016-Aug-22 09:33N 50°02' W 006°20'106 9.4
2016-Aug-21 22:12N 51°30' W 007°57'711.3
2016-Aug-21 21:33N 51°36' W 008°04'1211.7
2016-Aug-21 20:34N 51°45' W 008°15'6 6.3
2016-Aug-21 19:34N 51°51' W 008°18'0 0.0
2016-Aug-21 18:32N 51°51' W 008°18'0 0.0
2016-Aug-21 17:32N 51°51' W 008°18'0 0.0
2016-Aug-21 16:20N 51°51' W 008°18'0 0.0
2016-Aug-21 15:32N 51°51' W 008°18'0 0.0
2016-Aug-21 14:32N 51°51' W 008°18'0 0.0
2016-Aug-21 12:26N 51°51' W 008°18'2 2.1
2016-Aug-21 11:19N 51°49' W 008°16'6 8.1
2016-Aug-21 10:33N 51°44' W 008°10'1211.7
2016-Aug-21 09:33N 51°40' W 007°52'5 4.6
2016-Aug-21 08:30N 51°44' W 007°50'5 5.4
2016-Aug-21 07:33N 51°49' W 007°48'1110.6
2016-Aug-21 06:33N 51°55' W 007°34'1110.8
2016-Aug-21 05:33N 52°03' W 007°22'1110.6
2016-Aug-21 04:33N 52°03' W 007°04'1110.8
2016-Aug-21 03:33N 52°02' W 006°47'141 4.7
2016-Aug-19 21:33N 54°14' W 005°25'1211.2
2016-Aug-19 20:28N 54°26' W 005°20'1213.2
2016-Aug-19 19:33N 54°38' W 005°25'1110.8
2016-Aug-19 18:34N 54°42' W 005°42'9 2.8
2016-Aug-19 15:23N 54°37' W 005°54'0 0.0
2016-Aug-19 13:23N 54°37' W 005°54'0 0.0
2016-Aug-19 09:22N 54°37' W 005°54'4 0.9
2016-Aug-19 04:33N 54°40' W 005°50'6 6.4
2016-Aug-19 03:33N 54°44' W 005°40'5 4.7
2016-Aug-19 02:33N 54°47' W 005°35'6 5.4
2016-Aug-19 01:31N 54°53' W 005°35'6 5.6
2016-Aug-19 00:32N 54°59' W 005°37'16 7.0
2016-Aug-18 22:16N 55°11' W 005°53'710.0
2016-Aug-18 21:33N 55°17' W 006°01'1211.6
2016-Aug-18 20:33N 55°20' W 006°21'1312.7
2016-Aug-18 19:34N 55°14' W 006°40'1 0.3
2016-Aug-18 14:22N 55°12' W 006°40'0 0.1
2016-Aug-18 13:22N 55°12' W 006°40'0 0.0
2016-Aug-18 11:25N 55°12' W 006°40'2 0.4
2016-Aug-18 06:33N 55°14' W 006°42'8 7.8
2016-Aug-18 05:32N 55°22' W 006°46'1111.1
2016-Aug-18 04:33N 55°32' W 006°52'1010.5
2016-Aug-18 03:33N 55°42' W 006°58'  

Dump ship's entire track history